createdAt,value
2018-12-11T00:01:02.408Z,39.93
2018-12-11T00:03:30.579Z,40.23
2018-12-11T00:05:58.753Z,40.70
2018-12-11T00:08:26.928Z,40.20
2018-12-11T00:10:55.269Z,40.40
2018-12-11T00:13:23.446Z,40.20
2018-12-11T00:15:51.619Z,40.37
2018-12-11T00:18:19.770Z,40.50
2018-12-11T00:20:47.936Z,40.50
2018-12-11T00:23:16.332Z,39.87
2018-12-11T00:25:44.477Z,39.17
2018-12-11T00:28:12.653Z,40.07
2018-12-11T00:30:40.892Z,40.27
2018-12-11T00:33:09.072Z,40.13
2018-12-11T00:35:37.332Z,39.97
2018-12-11T00:38:05.521Z,40.77
2018-12-11T00:40:33.665Z,39.40
2018-12-11T00:43:01.845Z,39.57
2018-12-11T00:45:30.038Z,39.37
2018-12-11T00:47:58.184Z,39.63
2018-12-11T00:50:26.392Z,39.87
2018-12-11T00:52:54.580Z,39.67
2018-12-11T00:55:22.741Z,39.87
2018-12-11T00:57:50.910Z,40.07
2018-12-11T01:00:19.084Z,40.20
2018-12-11T01:02:47.244Z,40.10
2018-12-11T01:05:15.646Z,40.83
2018-12-11T01:07:43.833Z,39.77
2018-12-11T01:10:12.399Z,39.97
2018-12-11T01:12:40.542Z,40.17
2018-12-11T01:15:08.957Z,39.73
2018-12-11T01:17:37.234Z,39.80
2018-12-11T01:20:07.000Z,40.30
2018-12-11T01:22:35.201Z,39.43
2018-12-11T01:25:03.478Z,40.20
2018-12-11T01:27:31.625Z,39.50
2018-12-11T01:29:59.809Z,40.00
2018-12-11T01:32:27.971Z,39.33
2018-12-11T01:34:56.343Z,38.70
2018-12-11T01:37:24.538Z,39.10
2018-12-11T01:39:52.717Z,38.83
2018-12-11T01:42:21.026Z,39.47
2018-12-11T01:44:49.197Z,39.40
2018-12-11T01:47:17.485Z,39.27
2018-12-11T01:49:45.625Z,39.43
2018-12-11T01:52:13.804Z,39.70
2018-12-11T01:54:41.970Z,39.00
2018-12-11T01:57:10.229Z,39.93
2018-12-11T01:59:38.419Z,38.83
2018-12-11T02:02:06.579Z,39.47
2018-12-11T02:04:34.752Z,39.47
2018-12-11T02:07:02.922Z,39.67
2018-12-11T02:09:31.100Z,39.70
2018-12-11T02:11:59.245Z,39.80
2018-12-11T02:14:27.400Z,39.07
2018-12-11T02:16:55.604Z,39.83
2018-12-11T02:19:23.746Z,39.83
2018-12-11T02:21:51.907Z,39.67
2018-12-11T02:24:20.067Z,39.57
2018-12-11T02:26:48.208Z,39.93
2018-12-11T02:29:16.372Z,39.87
2018-12-11T02:31:45.237Z,40.30
2018-12-11T02:34:13.463Z,39.93
2018-12-11T02:36:41.649Z,40.57
2018-12-11T02:39:10.393Z,40.40
2018-12-11T02:41:38.566Z,40.03
2018-12-11T02:44:06.725Z,40.77
2018-12-11T02:46:34.862Z,39.67
2018-12-11T02:49:03.020Z,39.17
2018-12-11T02:51:31.238Z,39.60
2018-12-11T02:53:59.414Z,39.03
2018-12-11T02:56:27.559Z,39.63
2018-12-11T02:58:55.918Z,39.67
2018-12-11T03:01:24.107Z,40.23
2018-12-11T03:03:52.283Z,39.53
2018-12-11T03:06:20.433Z,39.67
2018-12-11T03:08:48.589Z,39.70
2018-12-11T03:11:16.834Z,40.13
2018-12-11T03:13:45.231Z,40.20
2018-12-11T03:16:13.523Z,39.57
2018-12-11T03:18:41.689Z,39.63
2018-12-11T03:21:09.870Z,39.20
2018-12-11T03:23:38.044Z,38.97
2018-12-11T03:26:06.200Z,39.23
2018-12-11T03:28:34.382Z,39.67
2018-12-11T03:31:02.563Z,39.73
2018-12-11T03:33:31.413Z,40.13
2018-12-11T03:35:59.605Z,40.00
2018-12-11T03:38:27.774Z,39.23
2018-12-11T03:40:55.948Z,39.60
2018-12-11T03:43:24.113Z,38.80
2018-12-11T03:45:52.294Z,39.60
2018-12-11T03:48:20.470Z,39.50
2018-12-11T03:50:48.619Z,39.60
2018-12-11T03:53:16.782Z,39.40
2018-12-11T03:55:44.949Z,39.23
2018-12-11T03:58:13.109Z,39.37
2018-12-11T04:00:41.291Z,39.07
2018-12-11T04:03:10.338Z,39.07
2018-12-11T04:05:39.972Z,39.70
2018-12-11T04:08:08.147Z,39.80
2018-12-11T04:10:36.313Z,39.07
2018-12-11T04:13:04.580Z,39.73
2018-12-11T04:15:32.871Z,39.37
2018-12-11T04:18:01.016Z,39.33
2018-12-11T04:20:29.281Z,39.60
2018-12-11T04:22:57.494Z,39.37
2018-12-11T04:25:25.633Z,39.73
2018-12-11T04:27:53.772Z,39.03
2018-12-11T04:30:21.967Z,39.03
2018-12-11T04:32:50.132Z,39.23
2018-12-11T04:35:18.281Z,39.00
2018-12-11T04:37:46.437Z,39.10
2018-12-11T04:40:14.585Z,39.37
2018-12-11T04:42:42.743Z,38.60
2018-12-11T04:45:10.918Z,39.33
2018-12-11T04:47:39.060Z,38.40
2018-12-11T04:50:07.837Z,39.73
2018-12-11T04:52:36.017Z,39.43
2018-12-11T04:55:05.300Z,39.17
2018-12-11T04:57:33.463Z,38.93
2018-12-11T05:00:01.633Z,38.67
2018-12-11T05:02:29.805Z,39.07
2018-12-11T05:04:57.959Z,39.30
2018-12-11T05:07:26.113Z,38.77
2018-12-11T05:09:54.283Z,38.97
2018-12-11T05:12:22.446Z,39.63
2018-12-11T05:14:50.621Z,40.53
2018-12-11T05:17:18.791Z,39.80
2018-12-11T05:19:46.929Z,39.03
2018-12-11T05:22:15.095Z,38.77
2018-12-11T05:24:43.251Z,40.60
2018-12-11T05:27:11.404Z,39.43
2018-12-11T05:29:39.594Z,39.50
2018-12-11T05:32:07.737Z,39.50
2018-12-11T05:34:35.923Z,39.10
2018-12-11T05:37:04.091Z,38.93
2018-12-11T05:39:32.241Z,40.27
2018-12-11T05:42:00.407Z,40.20
2018-12-11T05:44:28.683Z,39.93
2018-12-11T05:46:56.885Z,39.60
2018-12-11T05:49:25.049Z,40.07
2018-12-11T05:51:53.218Z,40.57
2018-12-11T05:54:21.395Z,40.57
2018-12-11T05:56:49.556Z,40.77
2018-12-11T05:59:17.728Z,39.93
2018-12-11T06:01:45.904Z,39.97
2018-12-11T06:04:14.053Z,40.23
2018-12-11T06:06:42.527Z,40.50
2018-12-11T06:09:11.024Z,40.87
2018-12-11T06:11:39.194Z,40.47
2018-12-11T06:14:07.351Z,40.37
2018-12-11T06:16:35.546Z,39.90
2018-12-11T06:19:03.689Z,40.23
2018-12-11T06:21:31.845Z,40.50
2018-12-11T06:24:00.040Z,40.87
2018-12-11T06:26:28.176Z,39.93
2018-12-11T06:28:56.334Z,39.43
2018-12-11T06:31:24.520Z,40.07
2018-12-11T06:33:52.863Z,39.60
2018-12-11T06:36:21.675Z,39.60
2018-12-11T06:38:49.836Z,39.83
2018-12-11T06:41:17.973Z,39.77
2018-12-11T06:43:46.123Z,39.40
2018-12-11T06:46:14.332Z,39.67
2018-12-11T06:48:42.497Z,40.30
2018-12-11T06:51:11.288Z,40.40
2018-12-11T06:53:39.540Z,40.73
2018-12-11T06:56:07.747Z,40.37
2018-12-11T06:58:35.915Z,39.60
2018-12-11T07:01:04.217Z,40.30
2018-12-11T07:03:32.385Z,40.23
2018-12-11T07:06:00.565Z,40.33
2018-12-11T07:08:28.747Z,40.30
2018-12-11T07:10:56.912Z,40.33
2018-12-11T07:13:25.061Z,39.90
2018-12-11T07:15:53.325Z,41.27
2018-12-11T07:18:25.929Z,40.00
2018-12-11T07:20:51.770Z,39.63
2018-12-11T07:23:20.104Z,39.90
2018-12-11T07:25:48.259Z,39.30
2018-12-11T07:28:17.392Z,39.47
2018-12-11T07:30:45.585Z,39.20
2018-12-11T07:33:13.729Z,39.87
2018-12-11T07:35:41.883Z,40.10
2018-12-11T07:38:10.053Z,40.57
2018-12-11T07:40:38.343Z,40.13
2018-12-11T07:43:06.542Z,39.77
2018-12-11T07:45:34.730Z,40.13
2018-12-11T07:48:02.879Z,40.57
2018-12-11T07:50:31.015Z,39.83
2018-12-11T07:52:59.209Z,40.20
2018-12-11T07:55:27.356Z,40.40
2018-12-11T07:57:55.504Z,39.80
2018-12-11T08:00:23.700Z,39.80
2018-12-11T08:02:51.849Z,39.80
2018-12-11T08:05:20.028Z,40.23
2018-12-11T08:07:48.202Z,40.20
2018-12-11T08:10:16.345Z,40.13
2018-12-11T08:12:44.485Z,39.17
2018-12-11T08:15:12.660Z,40.43
2018-12-11T08:17:40.800Z,40.47
2018-12-11T08:20:08.981Z,40.33
2018-12-11T08:22:37.165Z,40.57
2018-12-11T08:25:05.860Z,40.40
2018-12-11T08:27:34.033Z,40.23
2018-12-11T08:30:02.215Z,41.10
2018-12-11T08:32:30.375Z,41.30
2018-12-11T08:34:58.532Z,40.53
2018-12-11T08:37:26.697Z,40.20
2018-12-11T08:39:54.958Z,40.00
2018-12-11T08:42:23.105Z,39.93
2018-12-11T08:44:51.484Z,40.43
2018-12-11T08:47:19.902Z,40.80
2018-12-11T08:49:48.086Z,40.43
2018-12-11T08:52:16.356Z,40.57
2018-12-11T08:54:44.522Z,41.03
2018-12-11T08:57:12.672Z,41.63
2018-12-11T08:59:40.837Z,40.93
2018-12-11T09:02:09.036Z,40.90
2018-12-11T09:04:37.206Z,41.10
2018-12-11T09:07:05.434Z,41.17
2018-12-11T09:09:33.593Z,41.33
2018-12-11T09:12:01.773Z,42.20
2018-12-11T09:14:29.939Z,41.63
2018-12-11T09:16:58.096Z,41.70
2018-12-11T09:19:26.245Z,41.90
2018-12-11T09:21:54.410Z,41.80
2018-12-11T09:24:22.591Z,41.20
2018-12-11T09:26:50.749Z,41.37
2018-12-11T09:29:18.943Z,42.20
2018-12-11T09:31:47.093Z,42.23
2018-12-11T09:34:15.251Z,41.57
2018-12-11T09:36:43.420Z,41.97
2018-12-11T09:39:11.569Z,42.03
2018-12-11T09:41:39.738Z,41.50
2018-12-11T09:44:07.939Z,41.37
2018-12-11T09:46:36.118Z,44.18
2018-12-11T09:49:04.271Z,42.30
2018-12-11T09:51:32.474Z,42.40
2018-12-11T09:54:00.658Z,42.47
2018-12-11T09:56:29.000Z,41.50
2018-12-11T09:58:57.579Z,42.30
2018-12-11T10:01:25.745Z,41.60
2018-12-11T10:03:54.308Z,42.07
2018-12-11T10:06:22.723Z,41.27
2018-12-11T10:08:52.874Z,41.07
2018-12-11T10:11:21.123Z,42.03
2018-12-11T10:13:49.307Z,41.20
2018-12-11T10:16:17.477Z,42.00
2018-12-11T10:18:45.635Z,41.57
2018-12-11T10:21:13.841Z,42.10
2018-12-11T10:23:42.413Z,42.83
2018-12-11T10:26:10.565Z,42.43
2018-12-11T10:28:38.752Z,42.67
2018-12-11T10:31:07.025Z,42.63
2018-12-11T10:33:35.187Z,42.40
2018-12-11T10:36:03.365Z,42.57
2018-12-11T10:38:31.548Z,43.07
2018-12-11T10:40:59.716Z,42.47
2018-12-11T10:43:27.903Z,42.57
2018-12-11T10:45:57.011Z,42.60
2018-12-11T10:48:25.167Z,42.17
2018-12-11T10:50:53.337Z,42.10
2018-12-11T10:53:21.609Z,41.77
2018-12-11T10:55:49.807Z,41.87
2018-12-11T10:58:17.989Z,41.27
2018-12-11T11:00:48.153Z,41.13
2018-12-11T11:03:16.324Z,41.50
2018-12-11T11:05:44.599Z,40.93
2018-12-11T11:08:12.748Z,41.67
2018-12-11T11:10:40.911Z,42.43
2018-12-11T11:13:09.091Z,40.70
2018-12-11T11:15:37.256Z,41.10
2018-12-11T11:18:05.404Z,41.23
2018-12-11T11:20:33.592Z,41.30
2018-12-11T11:23:01.760Z,41.10
2018-12-11T11:25:29.939Z,41.20
2018-12-11T11:27:58.128Z,41.10
2018-12-11T11:30:26.282Z,41.00
2018-12-11T11:32:54.576Z,41.63
2018-12-11T11:35:22.884Z,41.30
2018-12-11T11:37:51.054Z,41.43
2018-12-11T11:40:19.201Z,40.10
2018-12-11T11:42:47.384Z,41.40
2018-12-11T11:45:15.580Z,40.83
2018-12-11T11:47:43.748Z,41.57
2018-12-11T11:50:13.921Z,40.90
2018-12-11T11:52:42.069Z,41.07
2018-12-11T11:55:10.238Z,41.03
2018-12-11T11:57:38.414Z,40.90
2018-12-11T12:00:10.384Z,40.63
2018-12-11T12:02:38.579Z,40.47
2018-12-11T12:05:06.849Z,41.73
2018-12-11T12:07:34.997Z,41.03
2018-12-11T12:10:05.619Z,40.83
2018-12-11T12:12:33.782Z,40.37
2018-12-11T12:15:01.949Z,41.10
2018-12-11T12:17:30.564Z,41.03
2018-12-11T12:19:58.740Z,41.87
2018-12-11T12:22:26.893Z,40.50
2018-12-11T12:24:55.121Z,40.53
2018-12-11T12:27:23.270Z,40.07
2018-12-11T12:29:51.439Z,41.20
2018-12-11T12:32:19.613Z,40.37
2018-12-11T12:34:47.788Z,40.90
2018-12-11T12:37:15.972Z,41.13
2018-12-11T12:39:44.237Z,40.37
2018-12-11T12:42:12.412Z,40.90
2018-12-11T12:44:40.585Z,41.17
2018-12-11T12:47:08.790Z,40.87
2018-12-11T12:49:36.996Z,41.50
2018-12-11T12:52:05.181Z,40.83
2018-12-11T12:54:33.383Z,40.83
2018-12-11T12:57:01.570Z,40.30
2018-12-11T12:59:29.744Z,41.23
2018-12-11T13:01:57.940Z,40.93
2018-12-11T13:04:26.111Z,40.43
2018-12-11T13:06:54.266Z,40.40
2018-12-11T13:09:23.360Z,40.30
2018-12-11T13:11:51.812Z,41.37
2018-12-11T13:14:19.964Z,40.53
2018-12-11T13:16:48.133Z,40.57
2018-12-11T13:19:16.303Z,40.80
2018-12-11T13:21:44.466Z,40.30
2018-12-11T13:24:12.642Z,40.77
2018-12-11T13:26:40.785Z,40.07
2018-12-11T13:29:08.935Z,39.87
2018-12-11T13:31:37.123Z,40.27
2018-12-11T13:34:05.447Z,40.23
2018-12-11T13:36:33.613Z,39.77
2018-12-11T13:39:03.758Z,40.10
2018-12-11T13:41:32.444Z,40.40
2018-12-11T13:44:01.108Z,40.70
2018-12-11T13:46:29.295Z,39.83
2018-12-11T13:48:57.601Z,40.33
2018-12-11T13:51:25.770Z,40.57
2018-12-11T13:53:53.937Z,40.50
2018-12-11T13:56:22.107Z,39.53
2018-12-11T13:58:50.287Z,39.77
2018-12-11T14:01:18.480Z,39.93
2018-12-11T14:03:46.633Z,39.60
2018-12-11T14:06:14.802Z,39.57
2018-12-11T14:08:43.080Z,39.80
2018-12-11T14:11:11.223Z,39.53
2018-12-11T14:13:39.372Z,40.00
2018-12-11T14:16:07.555Z,39.77
2018-12-11T14:18:37.604Z,40.40
2018-12-11T14:21:05.896Z,40.67
2018-12-11T14:23:34.088Z,40.97
2018-12-11T14:26:02.378Z,40.77
2018-12-11T14:28:30.890Z,41.03
2018-12-11T14:30:59.115Z,40.93
2018-12-11T14:33:27.273Z,40.63
2018-12-11T14:35:55.463Z,41.27
2018-12-11T14:38:23.673Z,40.63
2018-12-11T14:40:51.868Z,41.30
2018-12-11T14:43:20.131Z,40.50
2018-12-11T14:45:48.295Z,40.63
2018-12-11T14:48:16.447Z,41.33
2018-12-11T14:50:44.620Z,40.10
2018-12-11T14:53:12.772Z,41.03
2018-12-11T14:55:40.945Z,41.20
2018-12-11T14:58:09.238Z,42.17
2018-12-11T15:00:37.380Z,41.23
2018-12-11T15:03:06.133Z,40.87
2018-12-11T15:05:34.302Z,41.50
2018-12-11T15:08:02.970Z,42.47
2018-12-11T15:10:31.635Z,41.77
2018-12-11T15:12:59.804Z,41.47
2018-12-11T15:15:27.953Z,41.77
2018-12-11T15:17:56.098Z,41.57
2018-12-11T15:20:24.279Z,41.93
2018-12-11T15:22:52.451Z,41.57
2018-12-11T15:25:20.623Z,41.20
2018-12-11T15:27:48.805Z,41.27
2018-12-11T15:30:17.034Z,41.27
2018-12-11T15:32:45.254Z,41.37
2018-12-11T15:35:13.604Z,41.20
2018-12-11T15:37:41.834Z,42.00
2018-12-11T15:40:10.771Z,41.13
2018-12-11T15:42:39.078Z,42.83
2018-12-11T15:45:07.381Z,42.40
2018-12-11T15:47:35.542Z,41.93
2018-12-11T15:50:06.184Z,41.80
2018-12-11T15:52:34.363Z,41.40
2018-12-11T15:55:02.558Z,41.17
2018-12-11T15:57:30.740Z,41.30
2018-12-11T15:59:59.831Z,42.03
2018-12-11T16:02:28.029Z,40.67
2018-12-11T16:04:57.016Z,41.27
2018-12-11T16:07:25.181Z,40.97
2018-12-11T16:09:53.356Z,40.87
2018-12-11T16:12:22.147Z,41.10
2018-12-11T16:14:50.390Z,40.00
2018-12-11T16:17:19.258Z,40.63
2018-12-11T16:19:47.474Z,40.03
2018-12-11T16:22:15.650Z,40.40
2018-12-11T16:24:43.818Z,40.90
2018-12-11T16:27:14.320Z,41.13
2018-12-11T16:29:42.524Z,40.30
2018-12-11T16:32:10.715Z,40.27
2018-12-11T16:34:38.952Z,40.80
2018-12-11T16:37:07.269Z,41.13
2018-12-11T16:39:35.544Z,40.67
2018-12-11T16:42:03.717Z,40.07
2018-12-11T16:44:31.908Z,41.00
2018-12-11T16:47:00.084Z,40.27
2018-12-11T16:49:28.285Z,41.00
2018-12-11T16:51:56.510Z,40.93
2018-12-11T16:54:24.657Z,40.77
2018-12-11T16:56:52.836Z,39.83
2018-12-11T16:59:21.005Z,39.77
2018-12-11T17:01:49.173Z,39.70
2018-12-11T17:04:17.389Z,39.67
2018-12-11T17:06:45.570Z,39.93
2018-12-11T17:09:14.114Z,39.57
2018-12-11T17:11:42.318Z,39.37
2018-12-11T17:14:10.509Z,40.07
2018-12-11T17:16:38.691Z,39.50
2018-12-11T17:19:06.907Z,39.40
2018-12-11T17:21:35.088Z,39.50
2018-12-11T17:24:03.266Z,40.53
2018-12-11T17:26:31.466Z,40.00
2018-12-11T17:28:59.631Z,39.33
2018-12-11T17:31:28.499Z,40.53
2018-12-11T17:33:56.983Z,40.10
2018-12-11T17:36:26.074Z,40.20
2018-12-11T17:38:54.279Z,40.47
2018-12-11T17:41:22.488Z,40.27
2018-12-11T17:43:50.676Z,39.73
2018-12-11T17:46:18.869Z,40.17
2018-12-11T17:48:47.089Z,39.47
2018-12-11T17:51:15.650Z,40.83
2018-12-11T17:53:43.803Z,40.00
2018-12-11T17:56:12.289Z,40.40
2018-12-11T17:58:40.438Z,40.77
2018-12-11T18:01:09.428Z,39.60
2018-12-11T18:03:37.598Z,39.83
2018-12-11T18:06:06.227Z,40.47
2018-12-11T18:08:34.400Z,39.53
2018-12-11T18:11:02.607Z,41.53
2018-12-11T18:13:30.778Z,40.20
2018-12-11T18:15:58.953Z,40.37
2018-12-11T18:18:27.157Z,40.57
2018-12-11T18:20:56.112Z,40.00
2018-12-11T18:23:24.299Z,39.83
2018-12-11T18:25:52.750Z,40.53
2018-12-11T18:28:21.859Z,39.87
2018-12-11T18:30:50.039Z,40.63
2018-12-11T18:33:18.228Z,40.73
2018-12-11T18:35:46.420Z,40.50
2018-12-11T18:38:15.171Z,40.27
2018-12-11T18:40:43.376Z,40.30
2018-12-11T18:43:11.739Z,41.30
2018-12-11T18:45:40.193Z,40.57
2018-12-11T18:48:08.398Z,41.17
2018-12-11T18:50:36.598Z,40.40
2018-12-11T18:53:04.792Z,40.73
2018-12-11T18:55:32.975Z,40.50
2018-12-11T18:58:01.178Z,41.50
2018-12-11T19:00:29.347Z,41.97
2018-12-11T19:02:57.610Z,41.17
2018-12-11T19:05:25.892Z,41.27
2018-12-11T19:07:54.149Z,41.77
2018-12-11T19:10:23.470Z,41.77
2018-12-11T19:12:51.656Z,41.27
2018-12-11T19:15:19.851Z,41.33
2018-12-11T19:17:48.017Z,40.93
2018-12-11T19:20:16.387Z,41.30
2018-12-11T19:22:44.648Z,41.50
2018-12-11T19:25:17.541Z,41.60
2018-12-11T19:27:45.720Z,41.03
2018-12-11T19:30:13.871Z,42.03
2018-12-11T19:32:42.159Z,41.80
2018-12-11T19:35:10.330Z,41.70
2018-12-11T19:37:38.516Z,41.87
2018-12-11T19:40:08.181Z,41.73
2018-12-11T19:42:36.707Z,41.23
2018-12-11T19:45:06.920Z,41.30
2018-12-11T19:47:36.108Z,40.67
2018-12-11T19:50:06.123Z,41.20
2018-12-11T19:52:39.642Z,40.83
2018-12-11T19:55:06.369Z,41.70
2018-12-11T19:57:35.860Z,42.07
2018-12-11T20:00:08.200Z,41.53
2018-12-11T20:02:36.402Z,41.33
2018-12-11T20:05:06.401Z,41.27
2018-12-11T20:07:34.691Z,42.00
2018-12-11T20:10:08.776Z,41.43
2018-12-11T20:12:36.969Z,41.13
2018-12-11T20:15:06.355Z,41.60
2018-12-11T20:17:34.529Z,41.00
2018-12-11T20:20:03.164Z,41.10
2018-12-11T20:22:31.344Z,40.77
2018-12-11T20:24:59.520Z,41.67
2018-12-11T20:27:27.693Z,40.43
2018-12-11T20:29:55.885Z,41.47
2018-12-11T20:32:24.067Z,41.50
2018-12-11T20:34:52.264Z,41.27
2018-12-11T20:37:20.449Z,40.77
2018-12-11T20:39:49.123Z,40.77
2018-12-11T20:42:17.532Z,41.03
2018-12-11T20:44:45.720Z,40.87
2018-12-11T20:47:14.102Z,40.93
2018-12-11T20:49:42.253Z,41.10
2018-12-11T20:52:10.448Z,40.80
2018-12-11T20:54:39.237Z,40.77
2018-12-11T20:57:07.391Z,41.17
2018-12-11T20:59:36.309Z,41.27
2018-12-11T21:02:04.507Z,40.80
2018-12-11T21:04:32.710Z,41.50
2018-12-11T21:07:01.669Z,41.17
2018-12-11T21:09:29.862Z,40.53
2018-12-11T21:11:58.042Z,40.67
2018-12-11T21:14:26.250Z,40.97
2018-12-11T21:16:54.957Z,40.93
2018-12-11T21:19:23.167Z,41.47
2018-12-11T21:21:51.337Z,41.17
2018-12-11T21:24:19.911Z,41.03
2018-12-11T21:26:48.169Z,40.93
2018-12-11T21:29:16.651Z,40.87
2018-12-11T21:31:44.814Z,40.57
2018-12-11T21:34:12.998Z,41.77
2018-12-11T21:36:41.186Z,41.13
2018-12-11T21:39:09.405Z,41.27
2018-12-11T21:41:37.624Z,41.23
2018-12-11T21:44:05.833Z,42.13
2018-12-11T21:46:34.025Z,42.67
2018-12-11T21:49:02.299Z,42.80
2018-12-11T21:51:30.486Z,42.47
2018-12-11T21:53:58.677Z,42.60
2018-12-11T21:56:26.898Z,41.63
2018-12-11T21:58:55.131Z,41.83
2018-12-11T22:01:23.281Z,41.77
2018-12-11T22:03:51.470Z,42.80
2018-12-11T22:06:20.252Z,42.40
2018-12-11T22:08:48.434Z,43.20
2018-12-11T22:11:16.794Z,42.03
2018-12-11T22:13:44.963Z,42.53
2018-12-11T22:16:13.161Z,43.27
2018-12-11T22:18:41.337Z,42.67
2018-12-11T22:21:09.531Z,42.97
2018-12-11T22:23:37.706Z,42.83
2018-12-11T22:26:05.885Z,42.60
2018-12-11T22:28:34.037Z,42.53
2018-12-11T22:31:02.206Z,43.17
2018-12-11T22:33:30.383Z,43.13
2018-12-11T22:35:58.553Z,43.03
2018-12-11T22:38:26.735Z,43.70
2018-12-11T22:40:54.910Z,43.97
2018-12-11T22:43:23.089Z,43.73
2018-12-11T22:45:51.236Z,42.90
2018-12-11T22:48:19.407Z,43.73
2018-12-11T22:50:47.782Z,43.40
2018-12-11T22:53:15.976Z,43.70
2018-12-11T22:55:44.151Z,43.37
2018-12-11T22:58:12.310Z,43.67
2018-12-11T23:00:45.253Z,43.83
2018-12-11T23:03:13.409Z,44.40
2018-12-11T23:05:41.557Z,44.30
2018-12-11T23:08:10.753Z,44.57
2018-12-11T23:10:38.910Z,43.80
2018-12-11T23:13:07.081Z,44.50
2018-12-11T23:15:35.250Z,43.07
2018-12-11T23:18:03.412Z,44.80
2018-12-11T23:20:31.592Z,44.13
2018-12-11T23:22:59.774Z,43.77
2018-12-11T23:25:27.947Z,43.63
2018-12-11T23:27:56.853Z,43.47
2018-12-11T23:30:25.402Z,44.03
2018-12-11T23:32:53.555Z,43.87
2018-12-11T23:35:22.220Z,43.87
2018-12-11T23:37:50.775Z,44.23
2018-12-11T23:40:18.929Z,44.80
2018-12-11T23:42:47.098Z,44.37
2018-12-11T23:45:15.346Z,44.57
2018-12-11T23:47:43.543Z,44.20
2018-12-11T23:50:11.711Z,44.03
2018-12-11T23:52:39.887Z,45.37
2018-12-11T23:55:08.075Z,44.03
2018-12-11T23:57:36.985Z,44.43
